sensor_id;sensor_type;location;lat;lon;timestamp;P1;durP1;ratioP1;P2;durP2;ratioP2
3159;SDS011;1591;51.486;7.146;2022-10-31T00:01:11;16.23;;;7.93;;
3159;SDS011;1591;51.486;7.146;2022-10-31T00:03:39;26.73;;;9.00;;
3159;SDS011;1591;51.486;7.146;2022-10-31T00:06:07;16.40;;;7.70;;
3159;SDS011;1591;51.486;7.146;2022-10-31T00:08:34;13.13;;;7.80;;
3159;SDS011;1591;51.486;7.146;2022-10-31T00:11:08;21.60;;;8.17;;
3159;SDS011;1591;51.486;7.146;2022-10-31T00:13:36;19.27;;;8.07;;
3159;SDS011;1591;51.486;7.146;2022-10-31T00:16:06;15.13;;;8.50;;
3159;SDS011;1591;51.486;7.146;2022-10-31T00:18:40;15.83;;;8.57;;
3159;SDS011;1591;51.486;7.146;2022-10-31T00:21:07;15.50;;;7.97;;
3159;SDS011;1591;51.486;7.146;2022-10-31T00:23:35;15.80;;;8.13;;
3159;SDS011;1591;51.486;7.146;2022-10-31T00:26:02;17.83;;;8.30;;
3159;SDS011;1591;51.486;7.146;2022-10-31T00:28:31;17.67;;;8.47;;
3159;SDS011;1591;51.486;7.146;2022-10-31T00:31:01;16.97;;;9.00;;
3159;SDS011;1591;51.486;7.146;2022-10-31T00:33:32;15.30;;;7.90;;
3159;SDS011;1591;51.486;7.146;2022-10-31T00:36:01;11.33;;;7.00;;
3159;SDS011;1591;51.486;7.146;2022-10-31T00:38:31;13.80;;;7.90;;
3159;SDS011;1591;51.486;7.146;2022-10-31T00:41:00;15.30;;;7.20;;
3159;SDS011;1591;51.486;7.146;2022-10-31T00:43:28;13.27;;;7.37;;
3159;SDS011;1591;51.486;7.146;2022-10-31T00:45:55;15.87;;;8.50;;
3159;SDS011;1591;51.486;7.146;2022-10-31T00:48:22;16.70;;;7.93;;
3159;SDS011;1591;51.486;7.146;2022-10-31T00:50:54;13.37;;;8.13;;
3159;SDS011;1591;51.486;7.146;2022-10-31T00:53:22;20.23;;;8.47;;
3159;SDS011;1591;51.486;7.146;2022-10-31T00:55:49;18.57;;;8.03;;
3159;SDS011;1591;51.486;7.146;2022-10-31T00:58:16;17.67;;;8.00;;
3159;SDS011;1591;51.486;7.146;2022-10-31T01:00:43;14.77;;;8.20;;
3159;SDS011;1591;51.486;7.146;2022-10-31T01:03:16;15.23;;;8.27;;
3159;SDS011;1591;51.486;7.146;2022-10-31T01:05:43;19.43;;;8.60;;
3159;SDS011;1591;51.486;7.146;2022-10-31T01:08:11;15.90;;;8.47;;
3159;SDS011;1591;51.486;7.146;2022-10-31T01:10:38;15.70;;;9.00;;
3159;SDS011;1591;51.486;7.146;2022-10-31T01:13:06;15.80;;;8.00;;
3159;SDS011;1591;51.486;7.146;2022-10-31T01:15:33;14.73;;;9.03;;
3159;SDS011;1591;51.486;7.146;2022-10-31T01:18:00;17.27;;;8.37;;
3159;SDS011;1591;51.486;7.146;2022-10-31T01:20:28;11.93;;;7.37;;
3159;SDS011;1591;51.486;7.146;2022-10-31T01:22:57;15.50;;;8.27;;
3159;SDS011;1591;51.486;7.146;2022-10-31T01:25:26;16.97;;;8.80;;
3159;SDS011;1591;51.486;7.146;2022-10-31T01:27:53;13.60;;;9.20;;
3159;SDS011;1591;51.486;7.146;2022-10-31T01:30:20;14.43;;;8.77;;
3159;SDS011;1591;51.486;7.146;2022-10-31T01:32:48;19.03;;;8.73;;
3159;SDS011;1591;51.486;7.146;2022-10-31T01:35:15;24.93;;;9.30;;
3159;SDS011;1591;51.486;7.146;2022-10-31T01:37:42;17.73;;;8.73;;
3159;SDS011;1591;51.486;7.146;2022-10-31T01:40:09;18.43;;;8.27;;
3159;SDS011;1591;51.486;7.146;2022-10-31T01:42:38;15.37;;;8.97;;
3159;SDS011;1591;51.486;7.146;2022-10-31T01:45:09;13.23;;;7.80;;
3159;SDS011;1591;51.486;7.146;2022-10-31T01:47:51;12.63;;;8.10;;
3159;SDS011;1591;51.486;7.146;2022-10-31T01:50:25;19.03;;;9.00;;
3159;SDS011;1591;51.486;7.146;2022-10-31T01:53:00;19.37;;;9.00;;
3159;SDS011;1591;51.486;7.146;2022-10-31T01:55:28;18.20;;;9.17;;
3159;SDS011;1591;51.486;7.146;2022-10-31T01:58:02;13.87;;;8.40;;
3159;SDS011;1591;51.486;7.146;2022-10-31T02:00:35;21.47;;;8.00;;
3159;SDS011;1591;51.486;7.146;2022-10-31T02:03:02;14.63;;;8.10;;
3159;SDS011;1591;51.486;7.146;2022-10-31T02:05:30;17.37;;;8.27;;
3159;SDS011;1591;51.486;7.146;2022-10-31T02:07:59;13.27;;;7.87;;
3159;SDS011;1591;51.486;7.146;2022-10-31T02:10:33;18.90;;;8.20;;
3159;SDS011;1591;51.486;7.146;2022-10-31T02:13:05;21.07;;;8.40;;
3159;SDS011;1591;51.486;7.146;2022-10-31T02:15:33;14.33;;;7.20;;
3159;SDS011;1591;51.486;7.146;2022-10-31T02:18:02;12.23;;;7.13;;
3159;SDS011;1591;51.486;7.146;2022-10-31T02:20:32;17.93;;;8.17;;
3159;SDS011;1591;51.486;7.146;2022-10-31T02:35:45;15.30;;;7.30;;
3159;SDS011;1591;51.486;7.146;2022-10-31T02:38:24;13.13;;;7.83;;
3159;SDS011;1591;51.486;7.146;2022-10-31T02:41:06;16.73;;;8.30;;
3159;SDS011;1591;51.486;7.146;2022-10-31T02:43:43;13.13;;;8.20;;
3159;SDS011;1591;51.486;7.146;2022-10-31T02:46:23;13.70;;;8.10;;
3159;SDS011;1591;51.486;7.146;2022-10-31T02:49:00;12.73;;;8.37;;
3159;SDS011;1591;51.486;7.146;2022-10-31T02:51:32;18.63;;;9.07;;
3159;SDS011;1591;51.486;7.146;2022-10-31T02:53:59;14.30;;;8.67;;
3159;SDS011;1591;51.486;7.146;2022-10-31T02:56:30;16.57;;;8.70;;
3159;SDS011;1591;51.486;7.146;2022-10-31T02:58:59;14.20;;;8.07;;
3159;SDS011;1591;51.486;7.146;2022-10-31T03:01:49;14.23;;;7.77;;
3159;SDS011;1591;51.486;7.146;2022-10-31T03:04:43;19.47;;;7.17;;
3159;SDS011;1591;51.486;7.146;2022-10-31T03:07:34;14.40;;;6.90;;
3159;SDS011;1591;51.486;7.146;2022-10-31T03:10:16;15.77;;;8.00;;
3159;SDS011;1591;51.486;7.146;2022-10-31T03:12:58;13.17;;;7.93;;
3159;SDS011;1591;51.486;7.146;2022-10-31T03:15:35;14.13;;;7.67;;
3159;SDS011;1591;51.486;7.146;2022-10-31T03:18:07;19.87;;;8.90;;
3159;SDS011;1591;51.486;7.146;2022-10-31T03:20:43;13.00;;;8.70;;
3159;SDS011;1591;51.486;7.146;2022-10-31T03:23:18;16.63;;;7.80;;
3159;SDS011;1591;51.486;7.146;2022-10-31T03:25:48;17.20;;;7.90;;
3159;SDS011;1591;51.486;7.146;2022-10-31T03:28:17;11.83;;;7.67;;
3159;SDS011;1591;51.486;7.146;2022-10-31T03:30:51;16.13;;;7.90;;
3159;SDS011;1591;51.486;7.146;2022-10-31T03:33:24;17.40;;;8.10;;
3159;SDS011;1591;51.486;7.146;2022-10-31T03:35:59;12.77;;;7.43;;
3159;SDS011;1591;51.486;7.146;2022-10-31T03:38:29;18.20;;;8.10;;
3159;SDS011;1591;51.486;7.146;2022-10-31T03:41:01;17.27;;;8.57;;
3159;SDS011;1591;51.486;7.146;2022-10-31T03:43:32;17.20;;;9.10;;
3159;SDS011;1591;51.486;7.146;2022-10-31T03:46:06;13.93;;;8.50;;
3159;SDS011;1591;51.486;7.146;2022-10-31T03:48:34;24.77;;;9.30;;
3159;SDS011;1591;51.486;7.146;2022-10-31T03:51:04;20.10;;;9.07;;
3159;SDS011;1591;51.486;7.146;2022-10-31T03:53:39;16.03;;;9.13;;
3159;SDS011;1591;51.486;7.146;2022-10-31T03:56:12;18.73;;;9.97;;
3159;SDS011;1591;51.486;7.146;2022-10-31T03:58:48;19.63;;;10.47;;
3159;SDS011;1591;51.486;7.146;2022-10-31T04:01:25;22.33;;;9.90;;
3159;SDS011;1591;51.486;7.146;2022-10-31T04:03:55;24.60;;;10.80;;
3159;SDS011;1591;51.486;7.146;2022-10-31T04:06:25;20.83;;;9.73;;
3159;SDS011;1591;51.486;7.146;2022-10-31T04:08:54;17.80;;;10.13;;
3159;SDS011;1591;51.486;7.146;2022-10-31T04:11:27;19.53;;;9.63;;
3159;SDS011;1591;51.486;7.146;2022-10-31T04:13:58;17.57;;;10.00;;
3159;SDS011;1591;51.486;7.146;2022-10-31T04:16:27;14.83;;;9.90;;
3159;SDS011;1591;51.486;7.146;2022-10-31T04:18:55;20.00;;;10.00;;
3159;SDS011;1591;51.486;7.146;2022-10-31T04:21:28;15.57;;;9.80;;
3159;SDS011;1591;51.486;7.146;2022-10-31T04:23:57;25.50;;;10.00;;
3159;SDS011;1591;51.486;7.146;2022-10-31T04:26:25;18.30;;;9.37;;
3159;SDS011;1591;51.486;7.146;2022-10-31T04:28:52;16.77;;;10.13;;
3159;SDS011;1591;51.486;7.146;2022-10-31T04:31:21;29.03;;;10.53;;
3159;SDS011;1591;51.486;7.146;2022-10-31T04:33:51;21.20;;;9.20;;
3159;SDS011;1591;51.486;7.146;2022-10-31T04:36:20;19.00;;;9.00;;
3159;SDS011;1591;51.486;7.146;2022-10-31T04:38:49;16.53;;;9.60;;
3159;SDS011;1591;51.486;7.146;2022-10-31T04:41:16;23.20;;;9.77;;
3159;SDS011;1591;51.486;7.146;2022-10-31T04:43:43;21.53;;;10.43;;
3159;SDS011;1591;51.486;7.146;2022-10-31T04:46:11;29.67;;;10.20;;
3159;SDS011;1591;51.486;7.146;2022-10-31T04:48:41;18.33;;;10.07;;
3159;SDS011;1591;51.486;7.146;2022-10-31T04:51:08;20.60;;;10.23;;
3159;SDS011;1591;51.486;7.146;2022-10-31T04:53:35;25.83;;;10.27;;
3159;SDS011;1591;51.486;7.146;2022-10-31T04:56:07;26.30;;;11.47;;
3159;SDS011;1591;51.486;7.146;2022-10-31T04:58:34;19.60;;;10.20;;
3159;SDS011;1591;51.486;7.146;2022-10-31T05:01:01;17.60;;;10.67;;
3159;SDS011;1591;51.486;7.146;2022-10-31T05:03:30;19.33;;;9.63;;
3159;SDS011;1591;51.486;7.146;2022-10-31T05:05:57;20.13;;;11.50;;
3159;SDS011;1591;51.486;7.146;2022-10-31T05:08:24;21.43;;;10.60;;
3159;SDS011;1591;51.486;7.146;2022-10-31T05:10:53;20.27;;;10.93;;
3159;SDS011;1591;51.486;7.146;2022-10-31T05:13:23;24.10;;;11.73;;
3159;SDS011;1591;51.486;7.146;2022-10-31T05:15:50;20.50;;;11.10;;
3159;SDS011;1591;51.486;7.146;2022-10-31T05:18:17;27.10;;;11.87;;
3159;SDS011;1591;51.486;7.146;2022-10-31T05:20:47;22.67;;;11.67;;
3159;SDS011;1591;51.486;7.146;2022-10-31T05:23:14;20.73;;;11.80;;
3159;SDS011;1591;51.486;7.146;2022-10-31T05:25:43;24.17;;;11.93;;
3159;SDS011;1591;51.486;7.146;2022-10-31T05:28:10;28.90;;;12.90;;
3159;SDS011;1591;51.486;7.146;2022-10-31T05:30:53;26.40;;;13.07;;
3159;SDS011;1591;51.486;7.146;2022-10-31T05:33:22;21.57;;;11.97;;
3159;SDS011;1591;51.486;7.146;2022-10-31T05:35:52;20.43;;;11.43;;
3159;SDS011;1591;51.486;7.146;2022-10-31T05:38:20;18.83;;;11.40;;
3159;SDS011;1591;51.486;7.146;2022-10-31T05:40:47;18.10;;;11.20;;
3159;SDS011;1591;51.486;7.146;2022-10-31T05:43:14;20.60;;;12.00;;
3159;SDS011;1591;51.486;7.146;2022-10-31T05:45:42;24.77;;;11.43;;
3159;SDS011;1591;51.486;7.146;2022-10-31T05:48:13;21.93;;;11.97;;
3159;SDS011;1591;51.486;7.146;2022-10-31T05:50:41;18.07;;;11.07;;
3159;SDS011;1591;51.486;7.146;2022-10-31T05:53:08;23.93;;;11.80;;
3159;SDS011;1591;51.486;7.146;2022-10-31T05:55:35;23.40;;;12.30;;
3159;SDS011;1591;51.486;7.146;2022-10-31T05:58:02;29.23;;;13.03;;
3159;SDS011;1591;51.486;7.146;2022-10-31T06:00:30;20.57;;;12.90;;
3159;SDS011;1591;51.486;7.146;2022-10-31T06:02:59;27.43;;;12.10;;
3159;SDS011;1591;51.486;7.146;2022-10-31T06:05:29;24.97;;;12.00;;
3159;SDS011;1591;51.486;7.146;2022-10-31T06:07:57;19.40;;;12.10;;
3159;SDS011;1591;51.486;7.146;2022-10-31T06:10:25;18.27;;;10.97;;
3159;SDS011;1591;51.486;7.146;2022-10-31T06:12:54;20.87;;;11.50;;
3159;SDS011;1591;51.486;7.146;2022-10-31T06:15:22;25.77;;;12.67;;
3159;SDS011;1591;51.486;7.146;2022-10-31T06:18:00;21.33;;;11.90;;
3159;SDS011;1591;51.486;7.146;2022-10-31T06:20:33;21.37;;;11.40;;
3159;SDS011;1591;51.486;7.146;2022-10-31T06:23:01;17.50;;;11.27;;
3159;SDS011;1591;51.486;7.146;2022-10-31T06:25:29;25.70;;;11.53;;
3159;SDS011;1591;51.486;7.146;2022-10-31T06:27:56;25.10;;;11.27;;
3159;SDS011;1591;51.486;7.146;2022-10-31T06:30:24;21.17;;;10.43;;
3159;SDS011;1591;51.486;7.146;2022-10-31T06:32:51;21.47;;;11.30;;
3159;SDS011;1591;51.486;7.146;2022-10-31T06:35:18;28.03;;;11.90;;
3159;SDS011;1591;51.486;7.146;2022-10-31T06:38:00;25.50;;;11.30;;
3159;SDS011;1591;51.486;7.146;2022-10-31T06:40:30;18.47;;;10.70;;
3159;SDS011;1591;51.486;7.146;2022-10-31T06:43:01;19.00;;;11.20;;
3159;SDS011;1591;51.486;7.146;2022-10-31T06:45:35;17.90;;;11.50;;
3159;SDS011;1591;51.486;7.146;2022-10-31T06:48:02;17.33;;;10.77;;
3159;SDS011;1591;51.486;7.146;2022-10-31T06:50:31;24.70;;;11.73;;
3159;SDS011;1591;51.486;7.146;2022-10-31T06:53:00;30.17;;;14.53;;
3159;SDS011;1591;51.486;7.146;2022-10-31T06:55:28;31.60;;;15.07;;
3159;SDS011;1591;51.486;7.146;2022-10-31T06:57:56;28.57;;;13.60;;
3159;SDS011;1591;51.486;7.146;2022-10-31T07:00:27;23.00;;;12.50;;
3159;SDS011;1591;51.486;7.146;2022-10-31T07:02:56;26.33;;;13.00;;
3159;SDS011;1591;51.486;7.146;2022-10-31T07:05:25;27.10;;;13.00;;
3159;SDS011;1591;51.486;7.146;2022-10-31T07:07:55;27.33;;;12.13;;
3159;SDS011;1591;51.486;7.146;2022-10-31T07:10:28;26.63;;;12.20;;
3159;SDS011;1591;51.486;7.146;2022-10-31T07:12:58;20.13;;;12.10;;
3159;SDS011;1591;51.486;7.146;2022-10-31T07:15:33;24.40;;;11.93;;
3159;SDS011;1591;51.486;7.146;2022-10-31T07:18:05;29.67;;;12.90;;
3159;SDS011;1591;51.486;7.146;2022-10-31T07:20:37;22.07;;;12.00;;
3159;SDS011;1591;51.486;7.146;2022-10-31T07:23:07;21.33;;;11.93;;
3159;SDS011;1591;51.486;7.146;2022-10-31T07:25:35;20.80;;;12.37;;
3159;SDS011;1591;51.486;7.146;2022-10-31T07:28:03;23.97;;;12.40;;
3159;SDS011;1591;51.486;7.146;2022-10-31T07:30:31;20.13;;;11.80;;
3159;SDS011;1591;51.486;7.146;2022-10-31T07:32:58;23.00;;;12.43;;
3159;SDS011;1591;51.486;7.146;2022-10-31T07:35:26;18.53;;;12.00;;
3159;SDS011;1591;51.486;7.146;2022-10-31T07:37:56;26.07;;;12.40;;
3159;SDS011;1591;51.486;7.146;2022-10-31T07:40:26;23.63;;;12.40;;
3159;SDS011;1591;51.486;7.146;2022-10-31T07:42:54;18.87;;;10.87;;
3159;SDS011;1591;51.486;7.146;2022-10-31T07:45:23;17.80;;;12.00;;
3159;SDS011;1591;51.486;7.146;2022-10-31T07:47:51;23.50;;;12.33;;
3159;SDS011;1591;51.486;7.146;2022-10-31T07:50:20;21.50;;;12.73;;
3159;SDS011;1591;51.486;7.146;2022-10-31T07:52:57;22.60;;;11.23;;
3159;SDS011;1591;51.486;7.146;2022-10-31T07:55:30;22.47;;;11.17;;
3159;SDS011;1591;51.486;7.146;2022-10-31T07:57:58;26.03;;;13.53;;
3159;SDS011;1591;51.486;7.146;2022-10-31T08:00:27;29.40;;;12.80;;
3159;SDS011;1591;51.486;7.146;2022-10-31T08:02:58;21.07;;;11.83;;
3159;SDS011;1591;51.486;7.146;2022-10-31T08:05:27;23.23;;;11.40;;
3159;SDS011;1591;51.486;7.146;2022-10-31T08:07:54;19.40;;;12.70;;
3159;SDS011;1591;51.486;7.146;2022-10-31T08:10:22;19.43;;;11.90;;
3159;SDS011;1591;51.486;7.146;2022-10-31T08:13:00;21.00;;;12.83;;
3159;SDS011;1591;51.486;7.146;2022-10-31T08:15:30;21.53;;;11.90;;
3159;SDS011;1591;51.486;7.146;2022-10-31T08:17:59;20.80;;;11.77;;
3159;SDS011;1591;51.486;7.146;2022-10-31T08:20:27;32.50;;;13.13;;
3159;SDS011;1591;51.486;7.146;2022-10-31T08:22:55;22.80;;;12.50;;
3159;SDS011;1591;51.486;7.146;2022-10-31T08:25:24;30.70;;;14.30;;
3159;SDS011;1591;51.486;7.146;2022-10-31T08:27:56;20.73;;;12.90;;
3159;SDS011;1591;51.486;7.146;2022-10-31T08:30:26;27.00;;;13.87;;
3159;SDS011;1591;51.486;7.146;2022-10-31T08:32:59;23.83;;;12.53;;
3159;SDS011;1591;51.486;7.146;2022-10-31T08:35:28;21.53;;;12.40;;
3159;SDS011;1591;51.486;7.146;2022-10-31T08:37:56;37.43;;;14.90;;
3159;SDS011;1591;51.486;7.146;2022-10-31T08:40:27;29.53;;;12.87;;
3159;SDS011;1591;51.486;7.146;2022-10-31T08:43:06;17.53;;;11.60;;
3159;SDS011;1591;51.486;7.146;2022-10-31T08:45:50;18.73;;;12.07;;
3159;SDS011;1591;51.486;7.146;2022-10-31T08:48:21;21.57;;;12.90;;
3159;SDS011;1591;51.486;7.146;2022-10-31T08:50:48;28.43;;;13.20;;
3159;SDS011;1591;51.486;7.146;2022-10-31T08:53:16;25.33;;;13.17;;
3159;SDS011;1591;51.486;7.146;2022-10-31T08:55:47;26.70;;;12.90;;
3159;SDS011;1591;51.486;7.146;2022-10-31T08:58:16;19.17;;;12.60;;
3159;SDS011;1591;51.486;7.146;2022-10-31T09:00:48;25.47;;;13.03;;
3159;SDS011;1591;51.486;7.146;2022-10-31T09:03:22;25.50;;;12.43;;
3159;SDS011;1591;51.486;7.146;2022-10-31T09:05:54;28.80;;;13.90;;
3159;SDS011;1591;51.486;7.146;2022-10-31T09:08:23;24.80;;;13.70;;
3159;SDS011;1591;51.486;7.146;2022-10-31T09:10:55;35.73;;;12.87;;
3159;SDS011;1591;51.486;7.146;2022-10-31T09:13:23;29.77;;;13.93;;
3159;SDS011;1591;51.486;7.146;2022-10-31T09:15:56;32.60;;;14.03;;
3159;SDS011;1591;51.486;7.146;2022-10-31T09:18:24;31.70;;;15.13;;
3159;SDS011;1591;51.486;7.146;2022-10-31T09:20:53;25.63;;;14.83;;
3159;SDS011;1591;51.486;7.146;2022-10-31T09:23:25;30.87;;;15.00;;
3159;SDS011;1591;51.486;7.146;2022-10-31T09:25:53;31.90;;;15.80;;
3159;SDS011;1591;51.486;7.146;2022-10-31T09:28:24;32.13;;;15.40;;
3159;SDS011;1591;51.486;7.146;2022-10-31T09:33:58;29.07;;;15.20;;
3159;SDS011;1591;51.486;7.146;2022-10-31T09:36:43;28.23;;;14.40;;
3159;SDS011;1591;51.486;7.146;2022-10-31T09:39:30;32.80;;;14.47;;
3159;SDS011;1591;51.486;7.146;2022-10-31T09:45:16;32.33;;;14.87;;
3159;SDS011;1591;51.486;7.146;2022-10-31T09:54:26;38.23;;;15.30;;
3159;SDS011;1591;51.486;7.146;2022-10-31T09:57:19;28.10;;;14.53;;
3159;SDS011;1591;51.486;7.146;2022-10-31T09:59:52;27.30;;;13.53;;
3159;SDS011;1591;51.486;7.146;2022-10-31T10:02:36;31.80;;;14.33;;
3159;SDS011;1591;51.486;7.146;2022-10-31T10:05:57;30.67;;;13.77;;
3159;SDS011;1591;51.486;7.146;2022-10-31T10:08:39;29.03;;;14.60;;
3159;SDS011;1591;51.486;7.146;2022-10-31T10:11:17;32.87;;;13.83;;
3159;SDS011;1591;51.486;7.146;2022-10-31T10:14:20;28.57;;;14.03;;
3159;SDS011;1591;51.486;7.146;2022-10-31T10:17:11;25.37;;;14.97;;
3159;SDS011;1591;51.486;7.146;2022-10-31T10:23:22;30.27;;;14.70;;
3159;SDS011;1591;51.486;7.146;2022-10-31T10:26:18;30.33;;;14.57;;
3159;SDS011;1591;51.486;7.146;2022-10-31T10:28:48;25.70;;;14.50;;
3159;SDS011;1591;51.486;7.146;2022-10-31T10:31:24;27.20;;;14.87;;
3159;SDS011;1591;51.486;7.146;2022-10-31T10:34:06;35.20;;;15.00;;
3159;SDS011;1591;51.486;7.146;2022-10-31T10:36:44;32.40;;;15.27;;
3159;SDS011;1591;51.486;7.146;2022-10-31T10:39:20;29.50;;;15.27;;
3159;SDS011;1591;51.486;7.146;2022-10-31T10:45:13;26.47;;;14.97;;
3159;SDS011;1591;51.486;7.146;2022-10-31T10:48:05;28.73;;;15.00;;
3159;SDS011;1591;51.486;7.146;2022-10-31T10:50:51;36.03;;;15.00;;
3159;SDS011;1591;51.486;7.146;2022-10-31T10:53:27;35.00;;;15.10;;
3159;SDS011;1591;51.486;7.146;2022-10-31T10:56:33;33.37;;;14.27;;
3159;SDS011;1591;51.486;7.146;2022-10-31T10:59:13;34.40;;;14.60;;
3159;SDS011;1591;51.486;7.146;2022-10-31T11:01:51;33.03;;;14.40;;
3159;SDS011;1591;51.486;7.146;2022-10-31T11:04:24;24.60;;;13.13;;
3159;SDS011;1591;51.486;7.146;2022-10-31T11:07:00;32.73;;;14.03;;
3159;SDS011;1591;51.486;7.146;2022-10-31T11:09:33;26.87;;;13.10;;
3159;SDS011;1591;51.486;7.146;2022-10-31T11:12:05;23.80;;;12.80;;
3159;SDS011;1591;51.486;7.146;2022-10-31T11:14:45;27.20;;;13.57;;
3159;SDS011;1591;51.486;7.146;2022-10-31T11:17:20;35.83;;;13.90;;
3159;SDS011;1591;51.486;7.146;2022-10-31T11:20:05;28.17;;;13.20;;
3159;SDS011;1591;51.486;7.146;2022-10-31T11:23:25;24.00;;;14.17;;
3159;SDS011;1591;51.486;7.146;2022-10-31T11:25:56;41.13;;;13.07;;
3159;SDS011;1591;51.486;7.146;2022-10-31T11:28:35;25.30;;;13.47;;
3159;SDS011;1591;51.486;7.146;2022-10-31T11:34:51;21.27;;;11.90;;
3159;SDS011;1591;51.486;7.146;2022-10-31T11:37:32;24.87;;;12.40;;
3159;SDS011;1591;51.486;7.146;2022-10-31T11:41:03;22.60;;;12.07;;
3159;SDS011;1591;51.486;7.146;2022-10-31T11:43:45;24.70;;;11.90;;
3159;SDS011;1591;51.486;7.146;2022-10-31T11:46:26;22.50;;;10.80;;
3159;SDS011;1591;51.486;7.146;2022-10-31T11:49:02;16.63;;;11.57;;
3159;SDS011;1591;51.486;7.146;2022-10-31T11:51:33;23.83;;;11.90;;
3159;SDS011;1591;51.486;7.146;2022-10-31T11:54:04;24.20;;;11.57;;
3159;SDS011;1591;51.486;7.146;2022-10-31T11:56:59;26.90;;;10.50;;
3159;SDS011;1591;51.486;7.146;2022-10-31T11:59:28;25.27;;;10.73;;
3159;SDS011;1591;51.486;7.146;2022-10-31T12:01:58;26.60;;;11.00;;
3159;SDS011;1591;51.486;7.146;2022-10-31T12:04:34;20.53;;;10.60;;
3159;SDS011;1591;51.486;7.146;2022-10-31T12:07:09;22.23;;;9.30;;
3159;SDS011;1591;51.486;7.146;2022-10-31T12:09:36;16.43;;;10.40;;
3159;SDS011;1591;51.486;7.146;2022-10-31T12:12:12;26.00;;;10.07;;
3159;SDS011;1591;51.486;7.146;2022-10-31T12:15:01;19.90;;;9.70;;
3159;SDS011;1591;51.486;7.146;2022-10-31T12:17:55;20.40;;;9.30;;
3159;SDS011;1591;51.486;7.146;2022-10-31T12:20:54;17.93;;;9.30;;
3159;SDS011;1591;51.486;7.146;2022-10-31T12:23:58;18.43;;;8.30;;
3159;SDS011;1591;51.486;7.146;2022-10-31T12:26:42;27.57;;;9.50;;
3159;SDS011;1591;51.486;7.146;2022-10-31T12:29:23;23.13;;;9.93;;
3159;SDS011;1591;51.486;7.146;2022-10-31T12:35:04;22.17;;;9.40;;
3159;SDS011;1591;51.486;7.146;2022-10-31T12:37:56;21.03;;;8.93;;
3159;SDS011;1591;51.486;7.146;2022-10-31T12:41:00;18.50;;;8.70;;
3159;SDS011;1591;51.486;7.146;2022-10-31T12:43:45;17.73;;;8.80;;
3159;SDS011;1591;51.486;7.146;2022-10-31T12:46:23;20.93;;;9.03;;
3159;SDS011;1591;51.486;7.146;2022-10-31T12:52:09;18.73;;;8.10;;
3159;SDS011;1591;51.486;7.146;2022-10-31T12:54:56;13.50;;;7.50;;
3159;SDS011;1591;51.486;7.146;2022-10-31T12:57:38;14.50;;;7.63;;
3159;SDS011;1591;51.486;7.146;2022-10-31T13:00:12;15.33;;;8.20;;
3159;SDS011;1591;51.486;7.146;2022-10-31T13:02:46;14.57;;;6.87;;
3159;SDS011;1591;51.486;7.146;2022-10-31T13:05:21;16.23;;;7.00;;
3159;SDS011;1591;51.486;7.146;2022-10-31T13:07:57;21.50;;;7.67;;
3159;SDS011;1591;51.486;7.146;2022-10-31T13:10:31;13.97;;;6.70;;
3159;SDS011;1591;51.486;7.146;2022-10-31T13:13:07;13.40;;;6.57;;
3159;SDS011;1591;51.486;7.146;2022-10-31T13:15:45;15.13;;;6.60;;
3159;SDS011;1591;51.486;7.146;2022-10-31T13:18:19;16.23;;;6.70;;
3159;SDS011;1591;51.486;7.146;2022-10-31T13:20:54;14.27;;;6.70;;
3159;SDS011;1591;51.486;7.146;2022-10-31T13:23:26;13.97;;;6.87;;
3159;SDS011;1591;51.486;7.146;2022-10-31T13:25:59;17.13;;;6.90;;
3159;SDS011;1591;51.486;7.146;2022-10-31T13:28:39;15.37;;;6.40;;
3159;SDS011;1591;51.486;7.146;2022-10-31T13:31:12;15.90;;;6.23;;
3159;SDS011;1591;51.486;7.146;2022-10-31T13:33:42;11.90;;;6.27;;
3159;SDS011;1591;51.486;7.146;2022-10-31T13:36:17;7.97;;;5.67;;
3159;SDS011;1591;51.486;7.146;2022-10-31T13:38:52;18.97;;;6.17;;
3159;SDS011;1591;51.486;7.146;2022-10-31T13:41:30;12.17;;;5.90;;
3159;SDS011;1591;51.486;7.146;2022-10-31T13:44:13;15.40;;;6.37;;
3159;SDS011;1591;51.486;7.146;2022-10-31T13:46:49;17.13;;;5.73;;
3159;SDS011;1591;51.486;7.146;2022-10-31T13:49:36;11.87;;;6.27;;
3159;SDS011;1591;51.486;7.146;2022-10-31T13:52:06;12.83;;;5.27;;
3159;SDS011;1591;51.486;7.146;2022-10-31T13:54:41;17.30;;;5.57;;
3159;SDS011;1591;51.486;7.146;2022-10-31T13:57:15;12.43;;;5.70;;
3159;SDS011;1591;51.486;7.146;2022-10-31T13:59:49;12.93;;;5.80;;
3159;SDS011;1591;51.486;7.146;2022-10-31T14:02:24;9.93;;;5.20;;
3159;SDS011;1591;51.486;7.146;2022-10-31T14:04:55;16.67;;;5.23;;
3159;SDS011;1591;51.486;7.146;2022-10-31T14:07:26;15.47;;;5.37;;
3159;SDS011;1591;51.486;7.146;2022-10-31T14:09:55;19.20;;;5.87;;
3159;SDS011;1591;51.486;7.146;2022-10-31T14:12:29;14.43;;;5.90;;
3159;SDS011;1591;51.486;7.146;2022-10-31T14:15:03;17.43;;;5.60;;
3159;SDS011;1591;51.486;7.146;2022-10-31T14:17:45;17.47;;;5.40;;
3159;SDS011;1591;51.486;7.146;2022-10-31T14:20:22;19.10;;;5.17;;
3159;SDS011;1591;51.486;7.146;2022-10-31T14:23:12;13.90;;;4.90;;
3159;SDS011;1591;51.486;7.146;2022-10-31T14:29:03;13.97;;;5.10;;
3159;SDS011;1591;51.486;7.146;2022-10-31T14:31:56;14.47;;;5.93;;
3159;SDS011;1591;51.486;7.146;2022-10-31T14:34:36;15.97;;;5.27;;
3159;SDS011;1591;51.486;7.146;2022-10-31T14:40:26;15.83;;;4.33;;
3159;SDS011;1591;51.486;7.146;2022-10-31T14:43:07;10.97;;;4.43;;
3159;SDS011;1591;51.486;7.146;2022-10-31T14:45:59;11.87;;;4.80;;
3159;SDS011;1591;51.486;7.146;2022-10-31T14:51:32;13.77;;;4.33;;
3159;SDS011;1591;51.486;7.146;2022-10-31T14:54:04;12.53;;;4.70;;
3159;SDS011;1591;51.486;7.146;2022-10-31T14:56:41;17.00;;;4.97;;
3159;SDS011;1591;51.486;7.146;2022-10-31T14:59:17;13.43;;;4.40;;
3159;SDS011;1591;51.486;7.146;2022-10-31T15:01:53;10.10;;;4.93;;
3159;SDS011;1591;51.486;7.146;2022-10-31T15:04:28;11.93;;;4.90;;
3159;SDS011;1591;51.486;7.146;2022-10-31T15:06:59;15.27;;;6.13;;
3159;SDS011;1591;51.486;7.146;2022-10-31T15:09:36;18.93;;;5.70;;
3159;SDS011;1591;51.486;7.146;2022-10-31T15:12:21;15.33;;;4.83;;
3159;SDS011;1591;51.486;7.146;2022-10-31T15:14:53;12.67;;;5.30;;
3159;SDS011;1591;51.486;7.146;2022-10-31T15:17:22;14.67;;;4.70;;
3159;SDS011;1591;51.486;7.146;2022-10-31T15:19:53;14.20;;;5.30;;
3159;SDS011;1591;51.486;7.146;2022-10-31T15:22:23;16.50;;;4.77;;
3159;SDS011;1591;51.486;7.146;2022-10-31T15:24:57;10.50;;;4.23;;
3159;SDS011;1591;51.486;7.146;2022-10-31T15:27:24;10.63;;;5.40;;
3159;SDS011;1591;51.486;7.146;2022-10-31T15:29:53;12.30;;;5.13;;
3159;SDS011;1591;51.486;7.146;2022-10-31T15:32:22;12.00;;;5.37;;
3159;SDS011;1591;51.486;7.146;2022-10-31T15:34:53;14.10;;;5.33;;
3159;SDS011;1591;51.486;7.146;2022-10-31T15:37:23;14.33;;;4.77;;
3159;SDS011;1591;51.486;7.146;2022-10-31T15:39:53;15.03;;;4.33;;
3159;SDS011;1591;51.486;7.146;2022-10-31T15:42:20;12.23;;;4.67;;
3159;SDS011;1591;51.486;7.146;2022-10-31T15:44:56;10.23;;;4.50;;
3159;SDS011;1591;51.486;7.146;2022-10-31T15:47:28;14.17;;;4.63;;
3159;SDS011;1591;51.486;7.146;2022-10-31T15:49:59;14.03;;;5.00;;
3159;SDS011;1591;51.486;7.146;2022-10-31T15:52:29;17.50;;;4.63;;
3159;SDS011;1591;51.486;7.146;2022-10-31T15:55:01;15.93;;;7.70;;
3159;SDS011;1591;51.486;7.146;2022-10-31T15:57:32;17.07;;;5.70;;
3159;SDS011;1591;51.486;7.146;2022-10-31T16:00:01;16.60;;;6.53;;
3159;SDS011;1591;51.486;7.146;2022-10-31T16:02:29;15.00;;;5.13;;
3159;SDS011;1591;51.486;7.146;2022-10-31T16:04:59;19.53;;;5.13;;
3159;SDS011;1591;51.486;7.146;2022-10-31T16:07:27;13.20;;;6.20;;
3159;SDS011;1591;51.486;7.146;2022-10-31T16:09:56;17.20;;;6.80;;
3159;SDS011;1591;51.486;7.146;2022-10-31T16:12:27;18.60;;;7.03;;
3159;SDS011;1591;51.486;7.146;2022-10-31T16:15:00;15.33;;;8.70;;
3159;SDS011;1591;51.486;7.146;2022-10-31T16:17:29;11.33;;;5.93;;
3159;SDS011;1591;51.486;7.146;2022-10-31T16:19:59;15.20;;;7.00;;
3159;SDS011;1591;51.486;7.146;2022-10-31T16:22:34;20.27;;;9.57;;
3159;SDS011;1591;51.486;7.146;2022-10-31T16:25:04;20.03;;;9.93;;